Cherry Point MCAS /Cunningham Field/
KNKT : now visible

Airfield :











YOU CAN JOIN US ON...

 
LOGIN :

Register | Disclaimer

   EN    FR    IT 

 









Legend :    VFR   Marginal VFR   IFR   Intensive IFR   Very Intensive IFR
Visi :
Ceiling :
>= 8 km
>= 3000ft
5 to 8 km
1000 to 3000 ft
1500m to 5 km
500 to 1000 ft
800 to 1500m
200 to 500 ft
< 800m
< 200 ft
Symbols :   Thunderstorms  Fog  Heavy snow  Heavy precipitations  Wind > 20 kt






- Airport Elevation : 29 ft


KNKT - Cherry Point MCAS /Cunningham Field/

CURRENT METAR :
  • 221054Z 23010KT 7SM SKC 26/23 A2985 RMK SLP105 T02560228

EXPIRED METARs :
  • 220954Z 22010G17KT 7SM SKC 26/23 A2984 RMK SLP101 T02560233
  • 220854Z 22016KT 7SM SKC 26/24 A2983 RMK SLP098 T02560239 56008

TAF TAF KNKT
Valid from the 22 at 09:00 until the 23 at 09:00 UTC


2209/2309 23010G20KT 9999 FEW070 QNH2978INS
BECMG 2212/2214 22012G20KT 9999 BKN020 BKN075 QNH2983INS
FM221600 23015G25KT 9999 BKN030 OVC100 QNH2982INS
TEMPO 2218/2300 21015G30KT 1600 SHRA BR BKN015
FM230300 VRB10G20KT 1600 TSRA BR OVC010CB QNH2986INS T29/2219Z T21/2308Z
KZDC FIR / North America



MET'MAP, your aeronautical weather chart ! - Copyright ORBIFLY December 2007 - Disclaimer

ORBIFLY MET'MAP TEAM :

Programming & Development : Alexandra Zaïnal
Concept & original design : Baudouin d'Aumeries
Assistance for programming : Marc-Olivier Méhu
Technical & hardware support : Manuel Goepfert

Contact : metmap@orbifly.com




SOURCES & CREDITS :

   NOAA       Earth
Advisory